sensor_id;sensor_type;location;lat;lon;timestamp;P1;durP1;ratioP1;P2;durP2;ratioP2
16037;SDS011;8123;50.906;6.172;2022-08-21T00:01:10;20.50;;;8.50;;
16037;SDS011;8123;50.906;6.172;2022-08-21T00:03:38;10.07;;;8.63;;
16037;SDS011;8123;50.906;6.172;2022-08-21T00:06:04;21.03;;;8.10;;
16037;SDS011;8123;50.906;6.172;2022-08-21T00:08:30;15.70;;;8.87;;
16037;SDS011;8123;50.906;6.172;2022-08-21T00:10:56;13.53;;;8.40;;
16037;SDS011;8123;50.906;6.172;2022-08-21T00:13:21;18.63;;;8.30;;
16037;SDS011;8123;50.906;6.172;2022-08-21T00:15:48;17.23;;;8.50;;
16037;SDS011;8123;50.906;6.172;2022-08-21T00:18:14;17.23;;;7.90;;
16037;SDS011;8123;50.906;6.172;2022-08-21T00:20:41;15.40;;;8.57;;
16037;SDS011;8123;50.906;6.172;2022-08-21T00:23:08;16.13;;;8.80;;
16037;SDS011;8123;50.906;6.172;2022-08-21T00:25:35;14.83;;;8.50;;
16037;SDS011;8123;50.906;6.172;2022-08-21T00:28:01;13.37;;;8.43;;
16037;SDS011;8123;50.906;6.172;2022-08-21T00:30:27;18.27;;;8.50;;
16037;SDS011;8123;50.906;6.172;2022-08-21T00:32:54;12.90;;;8.00;;
16037;SDS011;8123;50.906;6.172;2022-08-21T00:35:23;16.70;;;8.37;;
16037;SDS011;8123;50.906;6.172;2022-08-21T00:37:54;18.57;;;7.40;;
16037;SDS011;8123;50.906;6.172;2022-08-21T00:40:22;19.80;;;8.47;;
16037;SDS011;8123;50.906;6.172;2022-08-21T00:43:00;18.43;;;8.57;;
16037;SDS011;8123;50.906;6.172;2022-08-21T00:45:28;29.80;;;8.77;;
16037;SDS011;8123;50.906;6.172;2022-08-21T00:47:55;22.00;;;7.70;;
16037;SDS011;8123;50.906;6.172;2022-08-21T00:50:21;16.23;;;7.60;;
16037;SDS011;8123;50.906;6.172;2022-08-21T00:52:50;12.50;;;7.00;;
16037;SDS011;8123;50.906;6.172;2022-08-21T00:55:17;10.17;;;6.80;;
16037;SDS011;8123;50.906;6.172;2022-08-21T00:57:45;11.50;;;6.87;;
16037;SDS011;8123;50.906;6.172;2022-08-21T01:00:16;13.37;;;6.97;;
16037;SDS011;8123;50.906;6.172;2022-08-21T01:02:44;16.97;;;6.67;;
16037;SDS011;8123;50.906;6.172;2022-08-21T01:05:10;19.87;;;7.83;;
16037;SDS011;8123;50.906;6.172;2022-08-21T01:07:37;11.00;;;6.07;;
16037;SDS011;8123;50.906;6.172;2022-08-21T01:10:04;15.60;;;7.30;;
16037;SDS011;8123;50.906;6.172;2022-08-21T01:12:31;9.50;;;6.37;;
16037;SDS011;8123;50.906;6.172;2022-08-21T01:14:57;15.93;;;5.77;;
16037;SDS011;8123;50.906;6.172;2022-08-21T01:17:23;14.03;;;6.13;;
16037;SDS011;8123;50.906;6.172;2022-08-21T01:19:51;11.17;;;6.00;;
16037;SDS011;8123;50.906;6.172;2022-08-21T01:22:18;13.13;;;6.93;;
16037;SDS011;8123;50.906;6.172;2022-08-21T01:24:44;13.73;;;6.53;;
16037;SDS011;8123;50.906;6.172;2022-08-21T01:27:10;14.03;;;6.07;;
16037;SDS011;8123;50.906;6.172;2022-08-21T01:29:38;15.30;;;7.00;;
16037;SDS011;8123;50.906;6.172;2022-08-21T01:32:11;9.10;;;6.10;;
16037;SDS011;8123;50.906;6.172;2022-08-21T01:34:40;7.60;;;5.80;;
16037;SDS011;8123;50.906;6.172;2022-08-21T01:37:08;16.90;;;7.23;;
16037;SDS011;8123;50.906;6.172;2022-08-21T01:39:33;16.80;;;7.63;;
16037;SDS011;8123;50.906;6.172;2022-08-21T01:41:59;12.87;;;6.40;;
16037;SDS011;8123;50.906;6.172;2022-08-21T01:44:25;12.80;;;6.27;;
16037;SDS011;8123;50.906;6.172;2022-08-21T01:46:51;10.50;;;6.73;;
16037;SDS011;8123;50.906;6.172;2022-08-21T01:49:18;19.70;;;7.00;;
16037;SDS011;8123;50.906;6.172;2022-08-21T01:51:44;14.03;;;5.90;;
16037;SDS011;8123;50.906;6.172;2022-08-21T01:54:09;18.53;;;6.80;;
16037;SDS011;8123;50.906;6.172;2022-08-21T01:56:39;17.93;;;7.40;;
16037;SDS011;8123;50.906;6.172;2022-08-21T01:59:07;8.63;;;6.73;;
16037;SDS011;8123;50.906;6.172;2022-08-21T02:01:33;11.87;;;6.53;;
16037;SDS011;8123;50.906;6.172;2022-08-21T02:03:59;15.93;;;6.20;;
16037;SDS011;8123;50.906;6.172;2022-08-21T02:06:25;10.97;;;6.10;;
16037;SDS011;8123;50.906;6.172;2022-08-21T02:08:51;9.50;;;6.20;;
16037;SDS011;8123;50.906;6.172;2022-08-21T02:11:18;10.17;;;6.73;;
16037;SDS011;8123;50.906;6.172;2022-08-21T02:13:44;10.67;;;5.67;;
16037;SDS011;8123;50.906;6.172;2022-08-21T02:16:10;12.07;;;5.57;;
16037;SDS011;8123;50.906;6.172;2022-08-21T02:18:36;11.73;;;5.97;;
16037;SDS011;8123;50.906;6.172;2022-08-21T02:21:02;10.13;;;5.83;;
16037;SDS011;8123;50.906;6.172;2022-08-21T02:23:29;14.30;;;6.33;;
16037;SDS011;8123;50.906;6.172;2022-08-21T02:25:56;14.53;;;6.33;;
16037;SDS011;8123;50.906;6.172;2022-08-21T02:28:23;11.93;;;6.80;;
16037;SDS011;8123;50.906;6.172;2022-08-21T02:30:49;13.83;;;6.00;;
16037;SDS011;8123;50.906;6.172;2022-08-21T02:33:15;9.90;;;5.87;;
16037;SDS011;8123;50.906;6.172;2022-08-21T02:35:43;12.20;;;6.87;;
16037;SDS011;8123;50.906;6.172;2022-08-21T02:38:11;13.60;;;6.33;;
16037;SDS011;8123;50.906;6.172;2022-08-21T02:40:39;12.03;;;6.67;;
16037;SDS011;8123;50.906;6.172;2022-08-21T02:43:06;9.60;;;6.00;;
16037;SDS011;8123;50.906;6.172;2022-08-21T02:45:33;10.10;;;5.73;;
16037;SDS011;8123;50.906;6.172;2022-08-21T02:48:01;13.20;;;5.80;;
16037;SDS011;8123;50.906;6.172;2022-08-21T02:50:31;12.03;;;6.17;;
16037;SDS011;8123;50.906;6.172;2022-08-21T02:52:58;8.10;;;5.70;;
16037;SDS011;8123;50.906;6.172;2022-08-21T02:55:26;15.50;;;6.90;;
16037;SDS011;8123;50.906;6.172;2022-08-21T02:57:54;16.60;;;5.80;;
16037;SDS011;8123;50.906;6.172;2022-08-21T03:00:22;9.93;;;6.60;;
16037;SDS011;8123;50.906;6.172;2022-08-21T03:02:49;21.13;;;6.00;;
16037;SDS011;8123;50.906;6.172;2022-08-21T03:05:16;16.03;;;6.90;;
16037;SDS011;8123;50.906;6.172;2022-08-21T03:07:43;18.43;;;6.60;;
16037;SDS011;8123;50.906;6.172;2022-08-21T03:10:10;12.40;;;6.50;;
16037;SDS011;8123;50.906;6.172;2022-08-21T03:12:36;11.80;;;6.30;;
16037;SDS011;8123;50.906;6.172;2022-08-21T03:15:13;14.10;;;7.40;;
16037;SDS011;8123;50.906;6.172;2022-08-21T03:17:40;12.47;;;6.60;;
16037;SDS011;8123;50.906;6.172;2022-08-21T03:20:06;11.80;;;6.47;;
16037;SDS011;8123;50.906;6.172;2022-08-21T03:22:33;15.63;;;6.93;;
16037;SDS011;8123;50.906;6.172;2022-08-21T03:24:59;12.47;;;6.30;;
16037;SDS011;8123;50.906;6.172;2022-08-21T03:27:25;13.63;;;6.93;;
16037;SDS011;8123;50.906;6.172;2022-08-21T03:29:52;9.63;;;6.10;;
16037;SDS011;8123;50.906;6.172;2022-08-21T03:32:19;17.40;;;6.00;;
16037;SDS011;8123;50.906;6.172;2022-08-21T03:34:45;8.50;;;6.47;;
16037;SDS011;8123;50.906;6.172;2022-08-21T03:37:11;9.43;;;5.90;;
16037;SDS011;8123;50.906;6.172;2022-08-21T03:39:38;18.87;;;8.07;;
16037;SDS011;8123;50.906;6.172;2022-08-21T03:42:03;9.00;;;5.60;;
16037;SDS011;8123;50.906;6.172;2022-08-21T03:44:30;9.20;;;5.33;;
16037;SDS011;8123;50.906;6.172;2022-08-21T03:46:56;17.30;;;6.03;;
16037;SDS011;8123;50.906;6.172;2022-08-21T03:49:25;16.43;;;7.00;;
16037;SDS011;8123;50.906;6.172;2022-08-21T03:51:51;12.17;;;6.13;;
16037;SDS011;8123;50.906;6.172;2022-08-21T03:54:17;10.27;;;5.70;;
16037;SDS011;8123;50.906;6.172;2022-08-21T03:56:43;15.37;;;5.53;;
16037;SDS011;8123;50.906;6.172;2022-08-21T03:59:09;13.03;;;5.73;;
16037;SDS011;8123;50.906;6.172;2022-08-21T04:01:35;11.80;;;6.03;;
16037;SDS011;8123;50.906;6.172;2022-08-21T04:04:01;11.20;;;5.60;;
16037;SDS011;8123;50.906;6.172;2022-08-21T04:06:28;13.57;;;5.80;;
16037;SDS011;8123;50.906;6.172;2022-08-21T04:08:53;8.67;;;5.57;;
16037;SDS011;8123;50.906;6.172;2022-08-21T04:11:20;6.80;;;6.10;;
16037;SDS011;8123;50.906;6.172;2022-08-21T04:13:46;13.73;;;5.33;;
16037;SDS011;8123;50.906;6.172;2022-08-21T04:16:12;13.53;;;5.67;;
16037;SDS011;8123;50.906;6.172;2022-08-21T04:18:38;8.93;;;5.13;;
16037;SDS011;8123;50.906;6.172;2022-08-21T04:21:04;5.63;;;4.80;;
16037;SDS011;8123;50.906;6.172;2022-08-21T04:23:31;10.37;;;5.83;;
16037;SDS011;8123;50.906;6.172;2022-08-21T04:25:57;11.33;;;6.67;;
16037;SDS011;8123;50.906;6.172;2022-08-21T04:28:23;22.33;;;6.20;;
16037;SDS011;8123;50.906;6.172;2022-08-21T04:30:50;11.73;;;5.60;;
16037;SDS011;8123;50.906;6.172;2022-08-21T04:33:16;14.37;;;5.77;;
16037;SDS011;8123;50.906;6.172;2022-08-21T04:35:42;17.03;;;6.30;;
16037;SDS011;8123;50.906;6.172;2022-08-21T04:38:08;13.70;;;4.90;;
16037;SDS011;8123;50.906;6.172;2022-08-21T04:40:34;14.53;;;5.73;;
16037;SDS011;8123;50.906;6.172;2022-08-21T04:43:07;12.30;;;6.13;;
16037;SDS011;8123;50.906;6.172;2022-08-21T04:45:36;5.57;;;4.93;;
16037;SDS011;8123;50.906;6.172;2022-08-21T04:48:07;16.10;;;5.00;;
16037;SDS011;8123;50.906;6.172;2022-08-21T04:52:59;10.60;;;5.53;;
16037;SDS011;8123;50.906;6.172;2022-08-21T04:55:25;10.47;;;4.90;;
16037;SDS011;8123;50.906;6.172;2022-08-21T04:57:52;18.73;;;5.60;;
16037;SDS011;8123;50.906;6.172;2022-08-21T05:00:19;14.60;;;6.00;;
16037;SDS011;8123;50.906;6.172;2022-08-21T05:02:46;12.50;;;5.60;;
16037;SDS011;8123;50.906;6.172;2022-08-21T05:05:13;11.37;;;5.63;;
16037;SDS011;8123;50.906;6.172;2022-08-21T05:07:40;9.33;;;5.57;;
16037;SDS011;8123;50.906;6.172;2022-08-21T05:10:08;15.90;;;5.90;;
16037;SDS011;8123;50.906;6.172;2022-08-21T05:12:34;13.30;;;5.30;;
16037;SDS011;8123;50.906;6.172;2022-08-21T05:15:00;15.37;;;6.40;;
16037;SDS011;8123;50.906;6.172;2022-08-21T05:17:26;10.43;;;5.80;;
16037;SDS011;8123;50.906;6.172;2022-08-21T05:19:52;11.57;;;5.27;;
16037;SDS011;8123;50.906;6.172;2022-08-21T05:22:21;11.13;;;5.47;;
16037;SDS011;8123;50.906;6.172;2022-08-21T05:24:49;10.13;;;5.43;;
16037;SDS011;8123;50.906;6.172;2022-08-21T05:27:15;8.67;;;5.50;;
16037;SDS011;8123;50.906;6.172;2022-08-21T05:29:41;10.93;;;5.40;;
16037;SDS011;8123;50.906;6.172;2022-08-21T05:32:08;14.60;;;6.17;;
16037;SDS011;8123;50.906;6.172;2022-08-21T05:34:38;9.73;;;5.93;;
16037;SDS011;8123;50.906;6.172;2022-08-21T05:37:04;17.30;;;5.90;;
16037;SDS011;8123;50.906;6.172;2022-08-21T05:39:30;13.83;;;5.47;;
16037;SDS011;8123;50.906;6.172;2022-08-21T05:41:56;9.73;;;6.30;;
16037;SDS011;8123;50.906;6.172;2022-08-21T05:44:21;9.23;;;5.77;;
16037;SDS011;8123;50.906;6.172;2022-08-21T05:46:47;7.63;;;5.30;;
16037;SDS011;8123;50.906;6.172;2022-08-21T05:49:13;15.63;;;6.50;;
16037;SDS011;8123;50.906;6.172;2022-08-21T05:51:41;8.90;;;4.83;;
16037;SDS011;8123;50.906;6.172;2022-08-21T05:54:07;10.50;;;6.00;;
16037;SDS011;8123;50.906;6.172;2022-08-21T05:56:33;15.33;;;5.43;;
16037;SDS011;8123;50.906;6.172;2022-08-21T05:58:59;17.67;;;5.83;;
16037;SDS011;8123;50.906;6.172;2022-08-21T06:01:24;16.03;;;4.90;;
16037;SDS011;8123;50.906;6.172;2022-08-21T06:03:50;11.47;;;5.57;;
16037;SDS011;8123;50.906;6.172;2022-08-21T06:06:16;19.03;;;6.13;;
16037;SDS011;8123;50.906;6.172;2022-08-21T06:08:41;12.03;;;4.87;;
16037;SDS011;8123;50.906;6.172;2022-08-21T06:11:07;7.80;;;4.97;;
16037;SDS011;8123;50.906;6.172;2022-08-21T06:13:34;13.63;;;5.60;;
16037;SDS011;8123;50.906;6.172;2022-08-21T06:16:11;12.57;;;5.37;;
16037;SDS011;8123;50.906;6.172;2022-08-21T06:18:39;6.77;;;4.60;;
16037;SDS011;8123;50.906;6.172;2022-08-21T06:21:05;12.37;;;7.23;;
16037;SDS011;8123;50.906;6.172;2022-08-21T06:23:32;12.90;;;5.70;;
16037;SDS011;8123;50.906;6.172;2022-08-21T06:25:59;14.00;;;5.20;;
16037;SDS011;8123;50.906;6.172;2022-08-21T06:28:26;9.77;;;4.80;;
16037;SDS011;8123;50.906;6.172;2022-08-21T06:30:52;7.10;;;4.00;;
16037;SDS011;8123;50.906;6.172;2022-08-21T06:33:18;13.17;;;5.03;;
16037;SDS011;8123;50.906;6.172;2022-08-21T06:35:43;22.93;;;3.70;;
16037;SDS011;8123;50.906;6.172;2022-08-21T06:38:09;11.87;;;4.20;;
16037;SDS011;8123;50.906;6.172;2022-08-21T06:40:35;11.83;;;3.90;;
16037;SDS011;8123;50.906;6.172;2022-08-21T06:43:05;9.30;;;4.13;;
16037;SDS011;8123;50.906;6.172;2022-08-21T06:45:33;8.33;;;3.63;;
16037;SDS011;8123;50.906;6.172;2022-08-21T06:47:58;15.10;;;5.37;;
16037;SDS011;8123;50.906;6.172;2022-08-21T06:50:24;11.90;;;3.90;;
16037;SDS011;8123;50.906;6.172;2022-08-21T06:52:50;10.90;;;4.93;;
16037;SDS011;8123;50.906;6.172;2022-08-21T06:55:34;10.93;;;4.23;;
16037;SDS011;8123;50.906;6.172;2022-08-21T06:58:00;6.70;;;4.23;;
16037;SDS011;8123;50.906;6.172;2022-08-21T07:00:26;18.20;;;3.50;;
16037;SDS011;8123;50.906;6.172;2022-08-21T07:02:52;11.93;;;4.00;;
16037;SDS011;8123;50.906;6.172;2022-08-21T07:05:17;4.93;;;2.50;;
16037;SDS011;8123;50.906;6.172;2022-08-21T07:07:43;3.80;;;2.80;;
16037;SDS011;8123;50.906;6.172;2022-08-21T07:10:09;5.90;;;2.67;;
16037;SDS011;8123;50.906;6.172;2022-08-21T07:12:35;11.47;;;3.03;;
16037;SDS011;8123;50.906;6.172;2022-08-21T07:15:00;5.27;;;3.17;;
16037;SDS011;8123;50.906;6.172;2022-08-21T07:17:26;7.33;;;3.47;;
16037;SDS011;8123;50.906;6.172;2022-08-21T07:19:52;4.97;;;2.90;;
16037;SDS011;8123;50.906;6.172;2022-08-21T07:22:20;12.77;;;2.93;;
16037;SDS011;8123;50.906;6.172;2022-08-21T07:24:46;6.70;;;2.77;;
16037;SDS011;8123;50.906;6.172;2022-08-21T07:27:12;15.13;;;2.53;;
16037;SDS011;8123;50.906;6.172;2022-08-21T07:29:38;4.20;;;3.00;;
16037;SDS011;8123;50.906;6.172;2022-08-21T07:32:04;7.27;;;3.07;;
16037;SDS011;8123;50.906;6.172;2022-08-21T07:34:30;5.90;;;2.40;;
16037;SDS011;8123;50.906;6.172;2022-08-21T07:36:56;8.33;;;2.50;;
16037;SDS011;8123;50.906;6.172;2022-08-21T07:39:22;14.73;;;4.73;;
16037;SDS011;8123;50.906;6.172;2022-08-21T07:41:48;9.47;;;3.80;;
16037;SDS011;8123;50.906;6.172;2022-08-21T07:44:14;3.33;;;2.10;;
16037;SDS011;8123;50.906;6.172;2022-08-21T07:46:39;6.10;;;2.07;;
16037;SDS011;8123;50.906;6.172;2022-08-21T07:49:05;4.67;;;2.23;;
16037;SDS011;8123;50.906;6.172;2022-08-21T07:51:31;5.80;;;2.53;;
16037;SDS011;8123;50.906;6.172;2022-08-21T07:53:58;12.70;;;2.00;;
16037;SDS011;8123;50.906;6.172;2022-08-21T07:56:26;12.23;;;2.73;;
16037;SDS011;8123;50.906;6.172;2022-08-21T07:58:52;6.07;;;2.63;;
16037;SDS011;8123;50.906;6.172;2022-08-21T08:01:18;4.80;;;2.07;;
16037;SDS011;8123;50.906;6.172;2022-08-21T08:03:44;2.80;;;2.27;;
16037;SDS011;8123;50.906;6.172;2022-08-21T08:06:11;8.00;;;3.00;;
16037;SDS011;8123;50.906;6.172;2022-08-21T08:08:40;7.83;;;2.20;;
16037;SDS011;8123;50.906;6.172;2022-08-21T08:11:07;5.13;;;2.07;;
16037;SDS011;8123;50.906;6.172;2022-08-21T08:13:42;2.60;;;1.70;;
16037;SDS011;8123;50.906;6.172;2022-08-21T08:16:13;7.27;;;2.87;;
16037;SDS011;8123;50.906;6.172;2022-08-21T08:18:40;3.90;;;2.03;;
16037;SDS011;8123;50.906;6.172;2022-08-21T08:21:06;3.20;;;1.97;;
16037;SDS011;8123;50.906;6.172;2022-08-21T08:23:33;2.87;;;1.87;;
16037;SDS011;8123;50.906;6.172;2022-08-21T08:25:59;5.27;;;2.03;;
16037;SDS011;8123;50.906;6.172;2022-08-21T08:28:27;2.90;;;2.00;;
16037;SDS011;8123;50.906;6.172;2022-08-21T08:30:53;5.50;;;2.10;;
16037;SDS011;8123;50.906;6.172;2022-08-21T08:33:19;4.47;;;2.40;;
16037;SDS011;8123;50.906;6.172;2022-08-21T08:35:46;11.07;;;2.97;;
16037;SDS011;8123;50.906;6.172;2022-08-21T08:38:13;6.33;;;2.77;;
16037;SDS011;8123;50.906;6.172;2022-08-21T08:43:33;6.10;;;2.07;;
16037;SDS011;8123;50.906;6.172;2022-08-21T08:46:04;6.97;;;2.10;;
16037;SDS011;8123;50.906;6.172;2022-08-21T08:48:45;10.90;;;3.13;;
16037;SDS011;8123;50.906;6.172;2022-08-21T08:51:16;9.37;;;3.53;;
16037;SDS011;8123;50.906;6.172;2022-08-21T08:53:58;10.77;;;2.60;;
16037;SDS011;8123;50.906;6.172;2022-08-21T08:56:29;3.00;;;1.83;;
16037;SDS011;8123;50.906;6.172;2022-08-21T08:58:59;3.83;;;2.10;;
16037;SDS011;8123;50.906;6.172;2022-08-21T09:01:32;4.60;;;2.13;;
16037;SDS011;8123;50.906;6.172;2022-08-21T09:03:57;6.20;;;2.67;;
16037;SDS011;8123;50.906;6.172;2022-08-21T09:06:36;6.93;;;2.87;;
16037;SDS011;8123;50.906;6.172;2022-08-21T09:09:29;7.83;;;3.00;;
16037;SDS011;8123;50.906;6.172;2022-08-21T09:14:44;4.30;;;2.00;;
16037;SDS011;8123;50.906;6.172;2022-08-21T09:23:15;6.90;;;2.10;;
16037;SDS011;8123;50.906;6.172;2022-08-21T09:26:13;5.50;;;2.47;;
16037;SDS011;8123;50.906;6.172;2022-08-21T09:28:41;12.07;;;3.07;;
16037;SDS011;8123;50.906;6.172;2022-08-21T09:31:53;5.40;;;2.23;;
16037;SDS011;8123;50.906;6.172;2022-08-21T09:33:59;6.53;;;2.50;;
16037;SDS011;8123;50.906;6.172;2022-08-21T09:36:35;6.57;;;2.47;;
16037;SDS011;8123;50.906;6.172;2022-08-21T09:39:09;7.60;;;2.60;;
16037;SDS011;8123;50.906;6.172;2022-08-21T09:41:36;3.33;;;2.30;;
16037;SDS011;8123;50.906;6.172;2022-08-21T09:44:03;7.37;;;2.57;;
16037;SDS011;8123;50.906;6.172;2022-08-21T09:46:30;9.07;;;3.00;;
16037;SDS011;8123;50.906;6.172;2022-08-21T09:49:00;10.53;;;2.70;;
16037;SDS011;8123;50.906;6.172;2022-08-21T09:51:29;8.23;;;2.37;;
16037;SDS011;8123;50.906;6.172;2022-08-21T09:59:35;10.90;;;3.07;;
16037;SDS011;8123;50.906;6.172;2022-08-21T10:04:59;8.83;;;2.57;;
16037;SDS011;8123;50.906;6.172;2022-08-21T10:07:28;8.57;;;3.20;;
16037;SDS011;8123;50.906;6.172;2022-08-21T10:10:04;9.57;;;3.00;;
16037;SDS011;8123;50.906;6.172;2022-08-21T10:12:44;9.63;;;3.20;;
16037;SDS011;8123;50.906;6.172;2022-08-21T10:15:24;11.77;;;3.60;;
16037;SDS011;8123;50.906;6.172;2022-08-21T10:18:20;9.00;;;3.10;;
16037;SDS011;8123;50.906;6.172;2022-08-21T10:20:54;6.70;;;3.03;;
16037;SDS011;8123;50.906;6.172;2022-08-21T10:34:28;6.80;;;3.20;;
16037;SDS011;8123;50.906;6.172;2022-08-21T10:39:35;9.10;;;3.30;;
16037;SDS011;8123;50.906;6.172;2022-08-21T10:47:18;8.47;;;2.90;;
16037;SDS011;8123;50.906;6.172;2022-08-21T10:55:25;6.30;;;3.17;;
16037;SDS011;8123;50.906;6.172;2022-08-21T11:06:23;13.73;;;3.57;;
16037;SDS011;8123;50.906;6.172;2022-08-21T11:08:57;8.33;;;3.30;;
16037;SDS011;8123;50.906;6.172;2022-08-21T11:11:35;7.27;;;2.90;;
16037;SDS011;8123;50.906;6.172;2022-08-21T11:16:46;7.17;;;2.70;;
16037;SDS011;8123;50.906;6.172;2022-08-21T11:22:21;9.40;;;2.20;;
16037;SDS011;8123;50.906;6.172;2022-08-21T11:27:24;6.80;;;2.30;;
16037;SDS011;8123;50.906;6.172;2022-08-21T11:29:58;9.47;;;2.93;;
16037;SDS011;8123;50.906;6.172;2022-08-21T11:43:43;4.93;;;2.40;;
16037;SDS011;8123;50.906;6.172;2022-08-21T11:46:17;9.43;;;2.80;;
16037;SDS011;8123;50.906;6.172;2022-08-21T11:51:39;5.07;;;2.00;;
16037;SDS011;8123;50.906;6.172;2022-08-21T11:54:23;7.53;;;2.40;;
16037;SDS011;8123;50.906;6.172;2022-08-21T11:57:53;5.20;;;2.83;;
16037;SDS011;8123;50.906;6.172;2022-08-21T12:00:07;4.43;;;1.90;;
16037;SDS011;8123;50.906;6.172;2022-08-21T12:02:42;2.87;;;2.10;;
16037;SDS011;8123;50.906;6.172;2022-08-21T12:05:23;3.20;;;1.90;;
16037;SDS011;8123;50.906;6.172;2022-08-21T12:11:05;3.47;;;1.90;;
16037;SDS011;8123;50.906;6.172;2022-08-21T12:13:57;4.80;;;2.00;;
16037;SDS011;8123;50.906;6.172;2022-08-21T12:16:35;7.70;;;2.17;;
16037;SDS011;8123;50.906;6.172;2022-08-21T12:19:12;6.10;;;2.23;;
16037;SDS011;8123;50.906;6.172;2022-08-21T12:24:20;5.53;;;2.10;;
16037;SDS011;8123;50.906;6.172;2022-08-21T12:27:30;6.80;;;2.17;;
16037;SDS011;8123;50.906;6.172;2022-08-21T12:30:20;4.40;;;2.10;;
16037;SDS011;8123;50.906;6.172;2022-08-21T12:33:03;7.27;;;2.30;;
16037;SDS011;8123;50.906;6.172;2022-08-21T12:35:36;11.27;;;2.20;;
16037;SDS011;8123;50.906;6.172;2022-08-21T12:40:44;2.30;;;1.97;;
16037;SDS011;8123;50.906;6.172;2022-08-21T12:43:19;4.17;;;1.97;;
16037;SDS011;8123;50.906;6.172;2022-08-21T12:45:58;4.23;;;1.97;;
16037;SDS011;8123;50.906;6.172;2022-08-21T12:51:46;7.27;;;2.13;;
16037;SDS011;8123;50.906;6.172;2022-08-21T12:54:29;5.97;;;2.17;;
16037;SDS011;8123;50.906;6.172;2022-08-21T12:56:58;11.90;;;3.10;;
16037;SDS011;8123;50.906;6.172;2022-08-21T12:59:28;6.13;;;1.93;;
16037;SDS011;8123;50.906;6.172;2022-08-21T13:01:55;2.87;;;1.87;;
16037;SDS011;8123;50.906;6.172;2022-08-21T13:04:26;8.03;;;2.53;;
16037;SDS011;8123;50.906;6.172;2022-08-21T13:07:09;9.33;;;2.37;;
16037;SDS011;8123;50.906;6.172;2022-08-21T13:10:02;10.30;;;2.73;;
16037;SDS011;8123;50.906;6.172;2022-08-21T13:12:58;3.73;;;1.93;;
16037;SDS011;8123;50.906;6.172;2022-08-21T13:15:31;5.30;;;2.13;;
16037;SDS011;8123;50.906;6.172;2022-08-21T13:17:58;5.47;;;2.40;;
16037;SDS011;8123;50.906;6.172;2022-08-21T13:20:28;4.60;;;2.67;;
16037;SDS011;8123;50.906;6.172;2022-08-21T13:23:00;4.50;;;3.03;;
16037;SDS011;8123;50.906;6.172;2022-08-21T13:25:28;12.13;;;2.83;;
16037;SDS011;8123;50.906;6.172;2022-08-21T13:30:24;4.27;;;2.20;;
16037;SDS011;8123;50.906;6.172;2022-08-21T13:32:50;8.37;;;2.17;;
16037;SDS011;8123;50.906;6.172;2022-08-21T13:35:30;6.90;;;2.07;;
16037;SDS011;8123;50.906;6.172;2022-08-21T13:38:15;11.50;;;2.53;;
16037;SDS011;8123;50.906;6.172;2022-08-21T13:40:51;5.83;;;2.20;;
16037;SDS011;8123;50.906;6.172;2022-08-21T13:43:22;4.90;;;1.83;;
16037;SDS011;8123;50.906;6.172;2022-08-21T13:45:53;2.90;;;2.30;;
16037;SDS011;8123;50.906;6.172;2022-08-21T13:48:21;3.70;;;1.90;;
16037;SDS011;8123;50.906;6.172;2022-08-21T13:50:49;3.70;;;2.20;;
16037;SDS011;8123;50.906;6.172;2022-08-21T13:53:23;2.97;;;1.77;;
16037;SDS011;8123;50.906;6.172;2022-08-21T13:55:56;6.53;;;1.90;;
16037;SDS011;8123;50.906;6.172;2022-08-21T13:58:27;4.17;;;2.03;;
16037;SDS011;8123;50.906;6.172;2022-08-21T14:00:55;5.13;;;2.07;;
16037;SDS011;8123;50.906;6.172;2022-08-21T14:03:41;5.53;;;2.20;;
16037;SDS011;8123;50.906;6.172;2022-08-21T14:06:16;8.60;;;2.20;;
16037;SDS011;8123;50.906;6.172;2022-08-21T14:08:47;8.33;;;2.60;;
16037;SDS011;8123;50.906;6.172;2022-08-21T14:11:17;6.10;;;2.40;;
16037;SDS011;8123;50.906;6.172;2022-08-21T14:13:56;10.80;;;2.70;;
16037;SDS011;8123;50.906;6.172;2022-08-21T14:16:26;8.07;;;2.10;;
16037;SDS011;8123;50.906;6.172;2022-08-21T14:19:23;6.00;;;2.23;;
16037;SDS011;8123;50.906;6.172;2022-08-21T14:21:51;8.57;;;2.10;;
16037;SDS011;8123;50.906;6.172;2022-08-21T14:26:50;9.67;;;3.00;;
16037;SDS011;8123;50.906;6.172;2022-08-21T14:29:16;8.73;;;2.30;;
16037;SDS011;8123;50.906;6.172;2022-08-21T14:31:48;7.47;;;2.33;;
16037;SDS011;8123;50.906;6.172;2022-08-21T14:34:24;7.07;;;2.20;;
16037;SDS011;8123;50.906;6.172;2022-08-21T14:36:52;4.43;;;2.60;;
16037;SDS011;8123;50.906;6.172;2022-08-21T14:39:18;5.83;;;1.90;;
16037;SDS011;8123;50.906;6.172;2022-08-21T14:41:44;5.50;;;2.07;;
16037;SDS011;8123;50.906;6.172;2022-08-21T14:44:13;5.73;;;2.23;;
16037;SDS011;8123;50.906;6.172;2022-08-21T14:46:39;6.80;;;2.20;;
16037;SDS011;8123;50.906;6.172;2022-08-21T14:49:05;5.80;;;1.73;;
16037;SDS011;8123;50.906;6.172;2022-08-21T14:51:31;2.93;;;2.10;;
16037;SDS011;8123;50.906;6.172;2022-08-21T14:53:56;4.10;;;2.83;;
16037;SDS011;8123;50.906;6.172;2022-08-21T14:56:22;3.90;;;2.30;;
16037;SDS011;8123;50.906;6.172;2022-08-21T14:58:50;8.50;;;2.10;;
16037;SDS011;8123;50.906;6.172;2022-08-21T15:01:19;5.07;;;2.23;;
16037;SDS011;8123;50.906;6.172;2022-08-21T15:03:47;5.60;;;2.03;;
16037;SDS011;8123;50.906;6.172;2022-08-21T15:06:14;3.53;;;2.17;;
16037;SDS011;8123;50.906;6.172;2022-08-21T15:08:42;6.70;;;2.73;;
16037;SDS011;8123;50.906;6.172;2022-08-21T15:11:08;10.43;;;2.73;;
16037;SDS011;8123;50.906;6.172;2022-08-21T15:13:37;8.07;;;2.40;;
16037;SDS011;8123;50.906;6.172;2022-08-21T15:16:03;5.47;;;2.20;;
16037;SDS011;8123;50.906;6.172;2022-08-21T15:18:30;8.13;;;2.50;;
16037;SDS011;8123;50.906;6.172;2022-08-21T15:20:56;12.47;;;2.80;;
16037;SDS011;8123;50.906;6.172;2022-08-21T15:23:22;3.70;;;2.30;;
16037;SDS011;8123;50.906;6.172;2022-08-21T15:25:48;9.03;;;2.77;;
16037;SDS011;8123;50.906;6.172;2022-08-21T15:28:14;7.50;;;2.13;;
16037;SDS011;8123;50.906;6.172;2022-08-21T15:30:41;8.30;;;2.33;;
16037;SDS011;8123;50.906;6.172;2022-08-21T15:33:08;5.17;;;1.97;;
16037;SDS011;8123;50.906;6.172;2022-08-21T15:35:34;5.33;;;2.57;;
16037;SDS011;8123;50.906;6.172;2022-08-21T15:38:00;3.53;;;1.60;;
16037;SDS011;8123;50.906;6.172;2022-08-21T15:40:26;5.93;;;2.50;;
16037;SDS011;8123;50.906;6.172;2022-08-21T15:42:53;15.20;;;2.73;;
16037;SDS011;8123;50.906;6.172;2022-08-21T15:45:24;7.67;;;2.50;;
16037;SDS011;8123;50.906;6.172;2022-08-21T15:47:50;6.47;;;2.10;;
16037;SDS011;8123;50.906;6.172;2022-08-21T15:50:16;6.53;;;2.53;;
16037;SDS011;8123;50.906;6.172;2022-08-21T15:52:42;10.87;;;2.80;;
16037;SDS011;8123;50.906;6.172;2022-08-21T15:55:09;6.27;;;2.30;;
16037;SDS011;8123;50.906;6.172;2022-08-21T15:57:36;7.00;;;2.60;;
16037;SDS011;8123;50.906;6.172;2022-08-21T16:00:12;3.10;;;1.97;;
16037;SDS011;8123;50.906;6.172;2022-08-21T16:02:42;13.20;;;4.10;;
16037;SDS011;8123;50.906;6.172;2022-08-21T16:05:11;9.93;;;3.87;;
16037;SDS011;8123;50.906;6.172;2022-08-21T16:07:40;7.33;;;2.37;;
16037;SDS011;8123;50.906;6.172;2022-08-21T16:10:06;8.57;;;2.07;;
16037;SDS011;8123;50.906;6.172;2022-08-21T16:12:34;6.83;;;2.40;;
16037;SDS011;8123;50.906;6.172;2022-08-21T16:15:04;3.90;;;2.37;;
16037;SDS011;8123;50.906;6.172;2022-08-21T16:17:33;17.17;;;3.00;;
16037;SDS011;8123;50.906;6.172;2022-08-21T16:20:01;8.03;;;2.30;;
16037;SDS011;8123;50.906;6.172;2022-08-21T16:22:31;5.40;;;2.10;;
16037;SDS011;8123;50.906;6.172;2022-08-21T16:24:57;8.37;;;2.20;;
16037;SDS011;8123;50.906;6.172;2022-08-21T16:27:23;3.70;;;1.70;;
16037;SDS011;8123;50.906;6.172;2022-08-21T16:29:48;5.83;;;2.50;;
16037;SDS011;8123;50.906;6.172;2022-08-21T16:32:15;11.20;;;3.03;;
16037;SDS011;8123;50.906;6.172;2022-08-21T16:34:42;6.20;;;2.27;;
16037;SDS011;8123;50.906;6.172;2022-08-21T16:37:11;8.43;;;1.90;;
16037;SDS011;8123;50.906;6.172;2022-08-21T16:39:48;7.50;;;2.20;;
16037;SDS011;8123;50.906;6.172;2022-08-21T16:42:15;7.57;;;2.70;;